• Join FlightAware (Why Join?)
  • Login
  • US Flag 
09:06PM EDT


 

Airport Tracker/Info


-or-


 

Live Flight TrackerFlight Track Log ✈ UAL1197 ✈ 11-Jun-2013 ✈ KSFO - KIAH

Flight Track Log - Related Links

Times and Time Zones

All times are in EDT time to prevent confusion due to time zone crossing. See the UAL1197 flight status page for this flight to view local times or setup timezone preferences in your user account.

Time Position Orientation Groundspeed Altitude Reporting Facility
EDT Latitude Longitude Course Direction KTS MPH feet Rate Location/Type
03:22AM 37.6220 -122.3910 26° Northeast 15 17  Level FlightAware
03:23AM 37.6230 -122.3880 67° East 25 29  Level FlightAware
03:23AM 37.6220 -122.3880 180° South 30 35  Level FlightAware
03:24AM 37.6210 -122.3840 108° East 30 35  Level FlightAware
03:24AM 37.6210 -122.3840 108° East 32 37  Level FlightAware
03:25AM 37.6200 -122.3820 122° Southeast 32 37  Level FlightAware
03:25AM 37.6190 -122.3800 122° Southeast 28 32  Level FlightAware
03:26AM 37.6180 -122.3790 142° Southeast 31 36  Level FlightAware
03:27AM 37.6130 -122.3800 189° South 34 39  Level FlightAware
03:29AM 37.8101 -122.3533 345° North  Level FlightAware Approximate
03:29AM 37.6070 -122.3840 345° North 27 31  Level FlightAware
03:30AM 37.6060 -122.3830 142° Southeast 22 25 60 Level FlightAware
03:32AM 37.8065 -122.3522 345° North  Level FlightAware Approximate
03:33AM 37.9141 -122.3785 349° North  Level FlightAware Approximate
03:34AM 37.9494 -122.2707 80° East  Level FlightAware Approximate
03:35AM 37.9613 -122.1321 84° East  Level FlightAware Approximate
03:35AM 37.6070 -122.3800 90° East 33 38  Level FlightAware
03:36AM 37.9667 -121.9930 90° East  Level FlightAware Approximate
03:36AM 37.6220 -122.3710 25° Northeast 175 201  Level FlightAware
03:36AM 37.6333 -122.3630 29° Northeast 182 209 600 2,400 Climbing FlightAware ADS-B
03:36AM 37.6392 -122.3590 28° Northeast 186 214 900 2,100 Climbing FlightAware ADS-B
03:37AM 37.6497 -122.3530 24° Northeast 198 228 1,300 1,320 Climbing FlightAware ADS-B
03:37AM 37.6542 -122.3510 19° North 207 238 1,300 1,020 Level FlightAware ADS-B
03:37AM 37.6651 -122.3440 27° Northeast 224 258 1,600 1,320 Climbing FlightAware ADS-B
03:37AM 37.6738 -122.3380 29° Northeast 235 270 1,800 2,460 Climbing FlightAware ADS-B
03:37AM 37.6926 -122.3270 25° Northeast 237 273 2,800 3,240 Climbing FlightAware ADS-B
03:37AM 37.6979 -122.3250 17° North 236 272 3,100 3,300 Climbing FlightAware ADS-B
03:37AM 37.7023 -122.3240 10° North 239 275 3,300 2,220 Climbing FlightAware ADS-B
03:38AM 37.7071 -122.3240 360° North 244 281 3,400 1,680 Climbing FlightAware ADS-B
03:38AM 37.7107 -122.3240 360° North 249 287 3,500 960 Climbing FlightAware ADS-B
03:38AM 37.7144 -122.3250 348° North 256 295 3,500 960 Level FlightAware ADS-B
03:38AM 37.7241 -122.3290 342° North 271 312 3,700 1,500 Climbing FlightAware ADS-B
03:38AM 37.7430 -122.3390 337° Northwest 290 334 4,100 2,220 Climbing FlightAware ADS-B
03:38AM 37.7635 -122.3500 337° Northwest 294 338 4,900 3,420 Climbing FlightAware ADS-B
03:39AM 37.7839 -122.3610 337° Northwest 282 325 6,000 3,480 Climbing FlightAware ADS-B
03:39AM 37.8142 -122.3760 339° North 284 327 7,300 3,000 Climbing FlightAware ADS-B
03:39AM 37.8210 -122.3780 347° North 288 331 7,500 2,100 Climbing FlightAware ADS-B
03:40AM 37.8640 -122.3820 356° North 300 345 8,700 2,460 Climbing FlightAware
03:40AM 37.8957 -122.3810 North 304 350 9,800 2,700 Climbing FlightAware ADS-B
03:40AM 37.9154 -122.3700 24° Northeast 308 354 10,300 1,680 Climbing FlightAware ADS-B
03:40AM 37.9218 -122.3640 36° Northeast 323 372 10,400 1,380 Climbing FlightAware ADS-B
03:40AM 37.9292 -122.3530 50° Northeast 330 380 10,600 1,500 Climbing FlightAware ADS-B
03:41AM 37.9332 -122.3440 61° Northeast 337 388 10,700 1,200 Climbing FlightAware ADS-B
03:41AM 37.9433 -122.2970 75° East 358 412 11,200 1,560 Climbing FlightAware ADS-B
03:41AM 37.9462 -122.2290 87° East 372 428 12,200 1,980 Climbing FlightAware ADS-B
03:42AM 37.9509 -122.1620 85° East 383 441 13,300 2,280 Climbing FlightAware ADS-B
03:42AM 37.9585 -122.0950 82° East 387 445 14,500 2,220 Climbing FlightAware ADS-B
03:43AM 37.9664 -122.0270 82° East 395 455 15,600 1,860 Climbing FlightAware ADS-B
03:44AM 37.9743 -121.9560 82° East 412 474 16,400 1,560 Climbing FlightAware ADS-B
03:44AM 37.9824 -121.8820 82° East 425 489 17,200 1,860 Climbing FlightAware ADS-B
03:45AM 37.9905 -121.8070 82° East 428 493 18,300 2,040 Climbing FlightAware ADS-B
03:46AM 38.0070 -121.6520 82° East 437 503 20,400 1,920 Climbing FlightAware
03:46AM 38.0119 -121.6080 82° East 441 507 20,900 1,860 Climbing FlightAware ADS-B
03:46AM 38.0201 -121.5310 82° East 447 514 21,800 1,620 Climbing FlightAware ADS-B
03:47AM 38.0285 -121.4520 82° East 454 522 22,600 1,560 Climbing FlightAware ADS-B
03:47AM 38.0369 -121.3720 82° East 459 528 23,400 1,560 Climbing FlightAware ADS-B
03:48AM 38.0453 -121.2910 82° East 464 534 24,200 1,500 Climbing FlightAware ADS-B
03:48AM 38.0538 -121.2090 82° East 468 539 24,900 1,380 Climbing FlightAware ADS-B
03:49AM 38.0629 -121.1200 83° East 472 543 25,700 1,380 Climbing FlightAware ADS-B
03:49AM 38.0716 -121.0330 83° East 476 548 26,400 1,080 Climbing FlightAware ADS-B
03:50AM 38.0840 -120.9330 81° East 482 555 27,200 1,200 Climbing FlightAware
03:51AM 38.1040 -120.7880 80° East 488 562 28,200 1,200 Climbing FlightAware
03:52AM 38.1190 -120.6770 80° East 492 566 28,900 1,260 Climbing FlightAware
03:52AM 38.1350 -120.5530 81° East 486 559 30,000 1,500 Climbing FlightAware
03:53AM 38.1510 -120.4340 80° East 482 555 31,100 1,380 Climbing FlightAware
03:54AM 38.1660 -120.3180 81° East 479 551 32,000 1,260 Climbing FlightAware
03:54AM 38.1830 -120.1930 80° East 477 549 32,900 660 Climbing FlightAware
03:55AM 38.1970 -120.0780 81° East 478 550 33,000 60 Climbing FlightAware
03:56AM 38.2120 -119.9670 80° East 479 551 33,000  Level FlightAware
03:57AM 38.2270 -119.8480 81° East 482 555 33,000 540 Level FlightAware
03:57AM 38.2400 -119.7440 81° East 478 550 33,800 1,500 Climbing FlightAware
03:58AM 38.2530 -119.6330 81° East 462 532 35,000 660 Climbing FlightAware
03:59AM 38.2730 -119.4780 81° East 466 536 35,000  Level FlightAware
04:00AM 38.2880 -119.3540 81° East 474 545 35,000  Level FlightAware
04:00AM 38.3010 -119.2440 81° East 475 547 35,000  Level FlightAware
04:01AM 38.3150 -119.1270 81° East 476 548 35,000  Level FlightAware
04:02AM 38.3270 -119.0270 81° East 470 541 35,000  Level FlightAware
04:02AM 38.3380 -118.9430 80° East 470 541 35,000  Level FlightAware
04:03AM 38.3520 -118.8310 81° East 470 541 35,000  Level FlightAware
04:04AM 38.3620 -118.7450 82° East 470 541 35,000  Level FlightAware
04:04AM 38.3760 -118.6330 81° East 470 541 35,000  Level FlightAware
04:05AM 38.3860 -118.5490 81° East 470 541 35,000  Level FlightAware
04:06AM 38.4000 -118.4400 81° East 470 541 35,000  Level FlightAware
04:06AM 38.4100 -118.3560 81° East 470 541 35,000  Level FlightAware
04:07AM 38.4250 -118.2420 80° East 470 541 35,000  Level FlightAware
04:08AM 38.4350 -118.1580 81° East 470 541 35,000  Level FlightAware
04:09AM 38.4490 -118.0460 81° East 470 541 35,000  Level FlightAware
04:09AM 38.4590 -117.9620 81° East 470 541 35,000  Level FlightAware
04:10AM 38.4710 -117.8690 81° East 470 541 35,000  Level FlightAware
04:11AM 38.4870 -117.7360 81° East 470 541 35,000  Level FlightAware
04:12AM 38.5103 -117.3878 81° East 488 562 35,000  Level Oakland Center
04:13AM 38.5150 -117.2139 88° East 485 558 35,000  Level Oakland Center
04:14AM 38.5000 -117.0406 96° East 486 559 35,000  Level Oakland Center
04:14AM 38.4944 -116.9711 96° East 486 559 35,000  Level Salt Lake Center
04:15AM 38.4864 -116.8683 96° East 484 557 35,000  Level Oakland Center
04:16AM 38.4708 -116.6981 97° East 481 554 35,000  Level Oakland Center
04:17AM 38.4561 -116.5281 96° East 481 554 35,000  Level Oakland Center
04:18AM 38.4406 -116.3597 97° East 477 549 35,000  Level Oakland Center
04:18AM 38.4356 -116.2928 95° East 477 549 35,000  Level Salt Lake Center
04:19AM 38.4208 -116.1261 96° East 474 545 35,000  Level Salt Lake Center
04:20AM 38.4044 -115.9564 97° East 479 551 35,000  Level Salt Lake Center
04:21AM 38.3883 -115.7875 97° East 479 551 35,000  Level Salt Lake Center
04:22AM 38.3728 -115.6172 97° East 482 555 35,000  Level Salt Lake Center
04:23AM 38.3578 -115.4469 96° East 484 557 35,000  Level Salt Lake Center
04:24AM 38.3375 -115.2494 97° East 486 559 35,000  Level Salt Lake Center
04:25AM 38.3211 -115.0794 97° East 485 558 35,000  Level Salt Lake Center
04:26AM 38.3031 -114.9133 98° East 477 549 35,000  Level Salt Lake Center
04:27AM 38.2872 -114.7447 97° East 480 552 35,000  Level Salt Lake Center
04:28AM 38.2697 -114.5769 98° East 481 554 35,000  Level Salt Lake Center
04:29AM 38.2514 -114.4117 98° East 473 544 35,000  Level Salt Lake Center
04:30AM 38.2167 -114.2528 105° East 466 536 35,000  Level Salt Lake Center
04:31AM 38.1806 -114.0958 106° East 464 534 35,000  Level Salt Lake Center
04:32AM 38.1431 -113.9394 107° East 464 534 35,000  Level Salt Lake Center
04:33AM 38.1058 -113.7828 107° East 464 534 35,000  Level Salt Lake Center
04:34AM 38.0678 -113.6267 107° East 463 533 35,000  Level Salt Lake Center
04:35AM 38.0306 -113.4703 107° East 463 533 35,000  Level Salt Lake Center
04:36AM 37.9925 -113.3142 107° East 462 532 35,000  Level Salt Lake Center
04:37AM 37.9550 -113.1569 107° East 464 534 35,000  Level Salt Lake Center
04:38AM 37.9172 -113.0011 107° East 461 531 35,000  Level Salt Lake Center
04:39AM 37.8794 -112.8461 107° East 458 527 35,000  Level Salt Lake Center
04:40AM 37.8408 -112.6897 107° East 459 528 35,000  Level Salt Lake Center
04:41AM 37.8022 -112.5350 107° East 458 527 35,000  Level Salt Lake Center
04:42AM 37.7631 -112.3811 108° East 458 527 35,000  Level Salt Lake Center
04:43AM 37.7236 -112.2264 108° East 459 528 35,000  Level Salt Lake Center
04:44AM 37.6842 -112.0703 108° East 465 535 35,000  Level Salt Lake Center
04:45AM 37.6433 -111.9147 108° East 467 537 35,000  Level Salt Lake Center
04:46AM 37.6031 -111.7578 108° East 470 541 35,000  Level Salt Lake Center
04:47AM 37.5611 -111.6006 109° East 473 544 35,000  Level Salt Lake Center
04:48AM 37.5206 -111.4442 108° East 471 542 35,000  Level Salt Lake Center
04:49AM 37.4789 -111.2892 109° East 470 541 35,000  Level Salt Lake Center
04:50AM 37.4311 -111.1408 112° Southeast 461 531 35,000  Level Salt Lake Center
04:51AM 37.4192 -111.1119 117° Southeast 459 528 35,000  Level Denver Center
04:52AM 37.3658 -110.9672 115° Southeast 460 529 35,000  Level Denver Center
04:53AM 37.3142 -110.8247 114° Southeast 449 517 35,000  Level Denver Center
04:54AM 37.2628 -110.6828 114° Southeast 447 514 35,000  Level Denver Center
04:55AM 37.2103 -110.5400 115° Southeast 451 519 35,000  Level Denver Center
04:56AM 37.1572 -110.3969 115° Southeast 453 521 35,000  Level Denver Center
04:57AM 37.1050 -110.2558 115° Southeast 447 514 35,000  Level Denver Center
04:58AM 37.0519 -110.1097 114° Southeast 445 512 35,000  Level Denver Center
04:59AM 37.0014 -109.9750 115° Southeast 446 513 35,000  Level Denver Center
05:00AM 36.9411 -109.8156 115° Southeast 452 520 35,000  Level Denver Center
05:01AM 36.8900 -109.6794 115° Southeast 450 518 35,000  Level Denver Center
05:02AM 36.8383 -109.5419 115° Southeast 455 524 35,000  Level Denver Center
05:03AM 36.7781 -109.3817 115° Southeast 456 525 35,000  Level Denver Center
05:04AM 36.7269 -109.2486 116° Southeast 448 516 35,000 -300 Level Denver Center
05:05AM 36.6764 -109.1133 115° Southeast 448 516 34,400 -780 Descending Denver Center
05:06AM 36.6233 -108.9767 116° Southeast 454 522 33,500 -720 Descending Denver Center
05:07AM 36.5597 -108.8153 116° Southeast 462 532 33,000 -300 Descending Denver Center
05:08AM 36.5061 -108.6761 116° Southeast 464 534 33,000  Level Denver Center
05:09AM 36.4528 -108.5386 116° Southeast 460 529 33,000  Level Denver Center
05:14AM 36.1230 -107.7100 116° Southeast 457 526 33,000  Level FlightAware
05:15AM 36.0850 -107.6150 116° Southeast 455 524 33,000  Level FlightAware
05:16AM 36.0470 -107.5210 117° Southeast 454 522 33,000  Level FlightAware
05:16AM 36.0130 -107.4360 116° Southeast 454 522 33,000  Level FlightAware
05:17AM 35.9720 -107.3360 117° Southeast 456 525 33,000  Level FlightAware
05:18AM 35.9270 -107.2240 116° Southeast 455 524 33,000  Level FlightAware
05:19AM 35.8900 -107.1340 117° Southeast 456 525 33,000  Level FlightAware
05:19AM 35.8470 -107.0300 117° Southeast 457 526 33,000  Level FlightAware
05:20AM 35.7960 -106.9050 117° Southeast 458 527 33,000  Level FlightAware
05:21AM 35.7520 -106.7990 117° Southeast 458 527 33,000  Level FlightAware
05:22AM 35.7140 -106.7070 117° Southeast 458 527 33,000  Level FlightAware
05:22AM 35.6750 -106.6130 117° Southeast 457 526 33,000  Level FlightAware
05:23AM 35.6310 -106.5080 117° Southeast 454 522 33,000  Level FlightAware
05:24AM 35.6020 -106.4370 117° Southeast 453 521 33,000  Level FlightAware
05:24AM 35.5520 -106.3190 117° Southeast 453 521 33,000  Level FlightAware
05:25AM 35.5180 -106.2360 117° Southeast 451 519 33,000  Level FlightAware
05:26AM 35.4730 -106.1290 117° Southeast 449 517 33,000  Level FlightAware
05:26AM 35.4350 -106.0390 117° Southeast 449 517 33,000  Level FlightAware
05:27AM 35.3940 -105.9430 118° Southeast 449 517 33,000  Level FlightAware
05:28AM 35.3520 -105.8430 117° Southeast 448 516 33,000  Level FlightAware
05:29AM 35.3120 -105.7480 117° Southeast 447 514 33,000  Level FlightAware
05:29AM 35.2800 -105.6730 118° Southeast 447 514 33,000  Level FlightAware
05:30AM 35.2410 -105.5810 117° Southeast 447 514 33,000  Level FlightAware
05:31AM 35.2130 -105.5120 116° Southeast 447 514 33,000  Level FlightAware
05:31AM 35.1771 -105.4350 120° Southeast 449 517 33,000  Level FlightAware ADS-B
05:31AM 35.1456 -105.3620 118° Southeast 454 522 33,000  Level FlightAware ADS-B
05:32AM 35.1156 -105.2920 118° Southeast 456 525 33,000  Level FlightAware ADS-B
05:32AM 35.0851 -105.2220 118° Southeast 454 522 33,000  Level FlightAware ADS-B
05:33AM 35.0558 -105.1540 118° Southeast 453 521 33,000  Level FlightAware ADS-B
05:34AM 35.0252 -105.0840 118° Southeast 454 522 33,000  Level FlightAware ADS-B
05:34AM 34.9948 -105.0140 118° Southeast 456 525 33,000  Level FlightAware ADS-B
05:35AM 34.9644 -104.9440 118° Southeast 457 526 33,000  Level FlightAware ADS-B
05:35AM 34.9347 -104.8760 118° Southeast 459 528 33,000  Level FlightAware ADS-B
05:36AM 34.9048 -104.8070 118° Southeast 459 528 33,000  Level FlightAware ADS-B
05:37AM 34.8078 -104.5870 118° Southeast 459 528 33,000  Level FlightAware ADS-B
05:38AM 34.7622 -104.4840 118° Southeast 459 528 33,000  Level FlightAware ADS-B
05:39AM 34.7057 -104.3560 118° Southeast 459 528 33,000  Level FlightAware ADS-B
05:40AM 34.6323 -104.1910 118° Southeast 458 527 33,000  Level FlightAware ADS-B
05:41AM 34.5977 -104.1140 119° Southeast 457 526 33,000  Level FlightAware ADS-B
05:41AM 34.5606 -104.0310 118° Southeast 456 525 33,000  Level FlightAware ADS-B
05:42AM 34.5298 -103.9620 118° Southeast 456 525 33,000  Level FlightAware ADS-B
05:42AM 34.4981 -103.8920 119° Southeast 456 525 33,000  Level FlightAware ADS-B
05:43AM 34.4676 -103.8240 119° Southeast 456 525 33,000  Level FlightAware ADS-B
05:43AM 34.4373 -103.7570 119° Southeast 456 525 33,000  Level FlightAware ADS-B
05:44AM 34.4063 -103.6880 119° Southeast 456 525 33,000  Level FlightAware ADS-B
05:44AM 34.3758 -103.6210 119° Southeast 456 525 33,000  Level FlightAware ADS-B
05:45AM 34.3448 -103.5530 119° Southeast 455 524 33,000  Level FlightAware ADS-B
05:45AM 34.3143 -103.4860 119° Southeast 455 524 33,000  Level FlightAware ADS-B
05:46AM 34.2833 -103.4180 119° Southeast 455 524 33,000  Level FlightAware ADS-B
05:46AM 34.2508 -103.3470 119° Southeast 455 524 33,000  Level FlightAware ADS-B
05:47AM 34.2160 -103.2710 119° Southeast 455 524 33,000  Level FlightAware ADS-B
05:47AM 34.1854 -103.2040 119° Southeast 456 525 33,000  Level FlightAware ADS-B
05:48AM 34.1547 -103.1370 119° Southeast 456 525 33,000  Level FlightAware ADS-B
05:49AM 34.1102 -103.0410 119° Southeast 456 525 33,000  Level FlightAware ADS-B
05:49AM 34.0788 -102.9730 119° Southeast 457 526 33,000  Level FlightAware ADS-B
05:50AM 34.0466 -102.9030 119° Southeast 458 527 33,000  Level FlightAware ADS-B
05:50AM 34.0141 -102.8330 119° Southeast 459 528 33,000  Level FlightAware ADS-B
05:51AM 33.9813 -102.7620 119° Southeast 459 528 33,000  Level FlightAware ADS-B
05:51AM 33.9500 -102.6950 119° Southeast 458 527 33,000  Level FlightAware ADS-B
05:52AM 33.9189 -102.6280 119° Southeast 458 527 33,000  Level FlightAware ADS-B
05:52AM 33.8874 -102.5610 120° Southeast 458 527 33,000  Level FlightAware ADS-B
05:53AM 33.8561 -102.4940 119° Southeast 458 527 33,000  Level FlightAware ADS-B
05:53AM 33.8247 -102.4270 119° Southeast 458 527 33,000  Level FlightAware ADS-B
05:54AM 33.7756 -102.3220 119° Southeast 458 527 33,000  Level FlightAware ADS-B
05:55AM 33.7437 -102.2550 120° Southeast 457 526 33,000  Level FlightAware ADS-B
05:55AM 33.7120 -102.1880 120° Southeast 457 526 33,000  Level FlightAware ADS-B
05:56AM 33.6804 -102.1210 120° Southeast 457 526 33,000  Level FlightAware ADS-B
05:56AM 33.6453 -102.0470 120° Southeast 456 525 33,000  Level FlightAware ADS-B
05:57AM 33.6137 -101.9800 120° Southeast 455 524 33,000  Level FlightAware ADS-B
05:59AM 33.4352 -101.6060 120° Southeast 455 524 33,000  Level FlightAware ADS-B
06:00AM 33.4025 -101.5390 120° Southeast 455 524 33,000  Level FlightAware ADS-B
06:00AM 33.3710 -101.4730 120° Southeast 455 524 33,000  Level FlightAware ADS-B
06:01AM 33.3395 -101.4080 120° Southeast 455 524 33,000  Level FlightAware ADS-B
06:01AM 33.3079 -101.3420 120° Southeast 456 525 33,000  Level FlightAware ADS-B
06:02AM 33.2755 -101.2750 120° Southeast 457 526 33,000  Level FlightAware ADS-B
06:03AM 33.2430 -101.2080 120° Southeast 458 527 33,000  Level FlightAware ADS-B
06:03AM 33.2111 -101.1430 120° Southeast 460 529 33,000  Level FlightAware ADS-B
06:04AM 33.1789 -101.0760 120° Southeast 459 528 33,000  Level FlightAware ADS-B
06:04AM 33.1463 -101.0100 121° Southeast 459 528 33,000  Level FlightAware ADS-B
06:05AM 33.0801 -100.8740 120° Southeast 460 529 33,000  Level FlightAware ADS-B
06:06AM 33.0433 -100.7990 120° Southeast 460 529 33,000  Level FlightAware ADS-B
06:06AM 33.0107 -100.7330 120° Southeast 460 529 33,000  Level FlightAware ADS-B
06:07AM 32.9742 -100.6590 120° Southeast 459 528 33,000  Level FlightAware ADS-B
06:09AM 32.8480 -100.4040 120° Southeast 458 527 33,000  Level FlightAware
06:09AM 32.8180 -100.3430 120° Southeast 459 528 33,000  Level FlightAware ADS-B
06:10AM 32.7380 -100.1830 121° Southeast 459 528 33,000  Level FlightAware
06:11AM 32.7050 -100.1180 121° Southeast 459 528 33,000  Level FlightAware
06:12AM 32.6434 -99.9939 120° Southeast 459 528 33,000  Level FlightAware ADS-B
06:12AM 32.6020 -99.9110 121° Southeast 459 528 33,000  Level FlightAware
06:13AM 32.5895 -99.8864 121° Southeast 459 528 33,000  Level FlightAware ADS-B
06:13AM 32.5580 -99.8230 121° Southeast 458 527 33,000  Level FlightAware
06:13AM 32.5494 -99.8069 122° Southeast 459 528 33,000  Level FlightAware ADS-B
06:14AM 32.5150 -99.7380 121° Southeast 458 527 33,000  Level FlightAware
06:15AM 32.4640 -99.6380 121° Southeast 460 529 33,000  Level FlightAware
06:15AM 32.4200 -99.5520 121° Southeast 462 532 33,000  Level FlightAware
06:16AM 32.3770 -99.4660 121° Southeast 462 532 33,000  Level FlightAware
06:17AM 32.3310 -99.3760 121° Southeast 464 534 33,000  Level FlightAware
06:17AM 32.2790 -99.2750 121° Southeast 463 533 33,000  Level FlightAware
06:18AM 32.2370 -99.1920 121° Southeast 462 532 33,000  Level FlightAware
06:19AM 32.1880 -99.0980 122° Southeast 460 529 33,000  Level FlightAware
06:19AM 32.1400 -99.0040 121° Southeast 459 528 33,000  Level FlightAware
06:20AM 32.0792 -98.8860 121° Southeast 458 527 33,000  Level FlightAware ADS-B
06:21AM 32.0340 -98.7990 121° Southeast 456 525 33,000  Level FlightAware
06:22AM 31.9900 -98.7140 121° Southeast 455 524 33,000  Level FlightAware
06:22AM 31.9410 -98.6200 122° Southeast 453 521 33,000  Level FlightAware
06:23AM 31.8970 -98.5350 121° Southeast 454 522 33,000  Level FlightAware
06:24AM 31.8490 -98.4440 122° Southeast 456 525 33,000  Level FlightAware
06:25AM 31.8020 -98.3540 122° Southeast 456 525 33,000  Level FlightAware
06:25AM 31.7580 -98.2700 122° Southeast 457 526 33,000  Level FlightAware
06:26AM 31.7070 -98.1740 122° Southeast 457 526 33,000  Level FlightAware
06:27AM 31.6650 -98.0930 121° Southeast 456 525 33,000  Level FlightAware
06:27AM 31.6200 -98.0080 122° Southeast 456 525 33,000  Level FlightAware
06:28AM 31.5710 -97.9150 122° Southeast 456 525 33,000  Level FlightAware
06:29AM 31.5330 -97.8440 122° Southeast 458 527 33,000  Level FlightAware ADS-B
06:29AM 31.4987 -97.7797 122° Southeast 457 526 33,000  Level FlightAware ADS-B
06:30AM 31.4642 -97.7152 122° Southeast 460 529 33,000  Level FlightAware ADS-B
06:30AM 31.4298 -97.6507 122° Southeast 460 529 33,000  Level FlightAware ADS-B
06:31AM 31.3926 -97.5807 122° Southeast 459 528 33,000  Level FlightAware ADS-B
06:31AM 31.3586 -97.5171 122° Southeast 460 529 33,000  Level FlightAware ADS-B
06:32AM 31.3239 -97.4525 122° Southeast 460 529 33,000  Level FlightAware ADS-B
06:32AM 31.2898 -97.3890 122° Southeast 459 528 33,000  Level FlightAware ADS-B
06:33AM 31.2553 -97.3250 122° Southeast 459 528 33,000  Level FlightAware ADS-B
06:33AM 31.2211 -97.2614 122° Southeast 457 526 33,000  Level FlightAware ADS-B
06:34AM 31.1868 -97.1980 122° Southeast 456 525 33,000 -420 Level FlightAware ADS-B
06:34AM 31.1522 -97.1385 126° Southeast 455 524 32,600 -900 Descending FlightAware ADS-B
06:35AM 31.1098 -97.0831 132° Southeast 456 525 32,100 -1,020 Descending FlightAware ADS-B
06:36AM 30.9804 -96.9183 133° Southeast 454 522 30,600 -1,500 Descending FlightAware ADS-B
06:37AM 30.8962 -96.8117 133° Southeast 440 506 28,400 -2,220 Descending FlightAware ADS-B
06:38AM 30.8550 -96.7597 133° Southeast 432 497 27,300 -2,220 Descending FlightAware ADS-B
06:38AM 30.8145 -96.7081 132° Southeast 424 488 26,200 -2,100 Descending FlightAware ADS-B
06:39AM 30.7751 -96.6584 133° Southeast 415 478 25,200 -2,100 Descending FlightAware ADS-B
06:39AM 30.7362 -96.6094 133° Southeast 406 467 24,100 -2,100 Descending FlightAware ADS-B
06:40AM 30.6607 -96.5143 133° Southeast 388 447 22,100 -1,920 Descending FlightAware ADS-B
06:42AM 30.5537 -96.3798 133° Southeast 363 418 19,300 -1,860 Descending FlightAware ADS-B
06:42AM 30.5198 -96.3375 133° Southeast 355 409 18,400 -1,800 Descending FlightAware ADS-B
06:43AM 30.4863 -96.2954 133° Southeast 348 400 17,500 -1,920 Descending FlightAware ADS-B
06:43AM 30.4533 -96.2545 133° Southeast 342 394 16,500 -1,920 Descending FlightAware ADS-B
06:44AM 30.4210 -96.2143 133° Southeast 337 388 15,600 -1,980 Descending FlightAware ADS-B
06:45AM 30.3259 -96.0957 133° Southeast 328 377 12,600 -2,040 Descending FlightAware ADS-B
06:46AM 30.2946 -96.0573 133° Southeast 322 371 11,600 -1,620 Descending FlightAware ADS-B
06:46AM 30.2645 -96.0193 133° Southeast 306 352 11,000 -1,200 Descending FlightAware ADS-B
06:47AM 30.2171 -95.9606 133° Southeast 283 326 10,000 -1,260 Descending FlightAware ADS-B
06:47AM 30.2038 -95.9443 133° Southeast 280 322 9,600 -1,440 Descending FlightAware ADS-B
06:48AM 30.1907 -95.9279 133° Southeast 275 316 9,300 -1,560 Descending FlightAware ADS-B
06:49AM 30.1371 -95.8616 133° Southeast 270 311 7,600 -1,620 Descending FlightAware ADS-B
06:49AM 30.1242 -95.8457 133° Southeast 266 306 7,200 -1,200 Descending FlightAware ADS-B
06:50AM 30.0987 -95.8141 133° Southeast 253 291 6,700 -1,200 Descending FlightAware ADS-B
06:50AM 30.0868 -95.7992 133° Southeast 248 285 6,300 -1,440 Descending FlightAware ADS-B
06:50AM 30.0757 -95.7853 133° Southeast 243 280 6,000 -1,200 Descending FlightAware ADS-B
06:50AM 30.0635 -95.7705 134° Southeast 238 274 5,700 -1,200 Descending FlightAware ADS-B
06:51AM 30.0521 -95.7565 133° Southeast 235 270 5,400 -1,380 Descending FlightAware ADS-B
06:51AM 30.0430 -95.7454 133° Southeast 233 268 5,100 -1,200 Descending FlightAware ADS-B
06:51AM 30.0301 -95.7294 133° Southeast 229 264 4,800 -960 Descending FlightAware ADS-B
06:51AM 30.0195 -95.7163 133° Southeast 221 254 4,600 -1,020 Descending FlightAware ADS-B
06:52AM 30.0080 -95.7022 133° Southeast 213 245 4,300 -900 Descending FlightAware ADS-B
06:52AM 30.0010 -95.6933 132° Southeast 211 243 4,200 -840 Descending FlightAware ADS-B
06:52AM 29.9988 -95.6899 127° Southeast 213 245 4,100 -900 Descending FlightAware ADS-B
06:52AM 29.9972 -95.6869 122° Southeast 214 246 4,100 -1,020 Level FlightAware ADS-B
06:52AM 29.9958 -95.6839 118° Southeast 216 249 4,000 -1,500 Descending FlightAware ADS-B
06:52AM 29.9940 -95.6781 110° East 219 252 3,900 -720 Descending FlightAware ADS-B
06:52AM 29.9931 -95.6731 102° East 223 257 3,900  Level FlightAware ADS-B
06:52AM 29.9927 -95.6645 93° East 224 258 3,900  Level FlightAware ADS-B
06:52AM 29.9931 -95.6461 89° East 228 262 3,900  Level FlightAware ADS-B
06:53AM 29.9930 -95.6342 91° East 227 261 3,900  Level FlightAware ADS-B
06:53AM 29.9927 -95.6132 91° East 219 252 3,900  Level FlightAware ADS-B
06:53AM 29.9928 -95.5955 90° East 209 241 3,900 -600 Level FlightAware ADS-B
06:53AM 29.9929 -95.5783 90° East 205 236 3,600 -1,080 Descending FlightAware ADS-B
06:54AM 29.9930 -95.5572 90° East 199 229 3,300 -1,080 Descending FlightAware ADS-B
06:54AM 29.9931 -95.5402 90° East 195 224 3,000 -960 Descending FlightAware ADS-B
06:54AM 29.9932 -95.5231 90° East 192 221 2,800 -1,080 Descending FlightAware ADS-B
06:54AM 29.9932 -95.5105 90° East 187 215 2,500 -1,080 Descending FlightAware ADS-B
06:55AM 29.9932 -95.4951 90° East 183 211 2,300 -780 Descending FlightAware ADS-B
06:55AM 29.9932 -95.4803 90° East 180 207 2,100 -1,020 Descending FlightAware ADS-B
06:55AM 29.9933 -95.4539 89° East 171 197 1,600 -900 Descending FlightAware ADS-B
06:56AM 29.9933 -95.4374 90° East 167 192 1,400 -720 Descending FlightAware ADS-B
06:56AM 29.9934 -95.4248 89° East 152 175 1,200 -840 Descending FlightAware ADS-B
06:56AM 29.9934 -95.4133 90° East 151 174 1,000 -840 Descending FlightAware ADS-B
06:56AM 29.9934 -95.4071 90° East 152 175 900 -1,020 Descending FlightAware ADS-B
06:56AM 29.9934 -95.4031 90° East 152 175 800 -720 Descending FlightAware ADS-B
06:57AM 29.9934 -95.3998 90° East 151 174 800 -780 Level FlightAware ADS-B
06:57AM 29.9934 -95.3968 90° East 154 177 700 -1,020 Descending FlightAware ADS-B
06:57AM 29.9934 -95.3905 90° East 153 176 600 -780 Descending FlightAware ADS-B
06:57AM 29.9934 -95.3835 90° East 154 177 500 -900 Descending FlightAware ADS-B
06:57AM 29.9934 -95.3732 90° East 154 177 300 -720 Descending FlightAware ADS-B
06:57AM 29.9934 -95.3631 90° East 153 176 200 -720 Descending FlightAware ADS-B
06:57AM 29.9934 -95.3580 90° East 153 176 100 -1,020 Descending FlightAware ADS-B